Backoo, North Dakota
Current Conditions -  °F | °C
As of 10:35 PM on Thursday 18 Dec 2014 (Local Time) from K2C8 Reporting Station
Broken Clouds Broken Clouds  
Wind Chill:   Ceiling: 1200
Heat Index: 19°   Visibility: 8mi
Dew Point: 16°   Wind: 13mph
Humidity: 86%   Direction: 170°S
Pressure: 30.12"   Gusts: NA
Location:  48.8218°N, 97.697°W
Report Text: K2C8 190435Z AUTO 17011KT 8SM BKN012 BKN032 M07/M09 A3012 RMK AO2
Loading
Personal Weather Stations






























Interactive Weather Map New forecast layout! Learn more

10-Day Weather Forecast

Advertisements
Track Severe Weather on mobile